sensor_id;sensor_type;location;lat;lon;timestamp;temperature;humidity
23311;DHT22;11828;51.508;18.118;2023-08-24T00:01:23;32.10;35.00
23311;DHT22;11828;51.508;18.118;2023-08-24T00:03:50;32.00;35.00
23311;DHT22;11828;51.508;18.118;2023-08-24T00:06:16;31.90;35.00
23311;DHT22;11828;51.508;18.118;2023-08-24T00:08:42;31.90;35.10
23311;DHT22;11828;51.508;18.118;2023-08-24T00:11:09;31.90;35.10
23311;DHT22;11828;51.508;18.118;2023-08-24T00:13:43;32.00;35.20
23311;DHT22;11828;51.508;18.118;2023-08-24T00:16:15;31.90;35.10
23311;DHT22;11828;51.508;18.118;2023-08-24T00:18:42;31.80;35.10
23311;DHT22;11828;51.508;18.118;2023-08-24T00:21:08;31.80;35.30
23311;DHT22;11828;51.508;18.118;2023-08-24T00:23:34;31.70;35.30
23311;DHT22;11828;51.508;18.118;2023-08-24T00:26:01;31.70;35.30
23311;DHT22;11828;51.508;18.118;2023-08-24T00:28:27;31.60;35.30
23311;DHT22;11828;51.508;18.118;2023-08-24T00:30:53;31.50;35.50
23311;DHT22;11828;51.508;18.118;2023-08-24T00:33:19;31.40;35.60
23311;DHT22;11828;51.508;18.118;2023-08-24T00:35:45;31.40;35.60
23311;DHT22;11828;51.508;18.118;2023-08-24T00:38:12;31.30;35.70
23311;DHT22;11828;51.508;18.118;2023-08-24T00:40:38;31.30;35.80
23311;DHT22;11828;51.508;18.118;2023-08-24T00:43:04;31.10;35.90
23311;DHT22;11828;51.508;18.118;2023-08-24T00:45:31;31.00;36.10
23311;DHT22;11828;51.508;18.118;2023-08-24T00:47:59;30.90;36.50
23311;DHT22;11828;51.508;18.118;2023-08-24T00:50:25;30.70;36.70
23311;DHT22;11828;51.508;18.118;2023-08-24T00:52:52;30.60;36.90
23311;DHT22;11828;51.508;18.118;2023-08-24T00:55:19;30.50;37.30
23311;DHT22;11828;51.508;18.118;2023-08-24T00:57:47;30.40;37.40
23311;DHT22;11828;51.508;18.118;2023-08-24T01:00:14;30.30;37.50
23311;DHT22;11828;51.508;18.118;2023-08-24T01:02:41;30.40;37.60
23311;DHT22;11828;51.508;18.118;2023-08-24T01:05:07;30.40;37.50
23311;DHT22;11828;51.508;18.118;2023-08-24T01:07:37;30.50;37.40
23311;DHT22;11828;51.508;18.118;2023-08-24T01:10:05;30.50;37.10
23311;DHT22;11828;51.508;18.118;2023-08-24T01:15:58;30.60;37.00
23311;DHT22;11828;51.508;18.118;2023-08-24T01:18:30;30.70;37.00
23311;DHT22;11828;51.508;18.118;2023-08-24T01:20:57;30.70;36.50
23311;DHT22;11828;51.508;18.118;2023-08-24T01:23:38;30.80;36.50
23311;DHT22;11828;51.508;18.118;2023-08-24T01:26:13;30.80;36.50
23311;DHT22;11828;51.508;18.118;2023-08-24T01:28:43;30.80;36.50
23311;DHT22;11828;51.508;18.118;2023-08-24T01:31:10;30.80;36.50
23311;DHT22;11828;51.508;18.118;2023-08-24T01:33:37;30.80;36.40
23311;DHT22;11828;51.508;18.118;2023-08-24T01:36:03;30.70;36.50
23311;DHT22;11828;51.508;18.118;2023-08-24T01:38:30;30.70;36.40
23311;DHT22;11828;51.508;18.118;2023-08-24T01:43:45;30.60;36.60
23311;DHT22;11828;51.508;18.118;2023-08-24T01:46:15;30.50;36.60
23311;DHT22;11828;51.508;18.118;2023-08-24T01:48:43;30.50;36.60
23311;DHT22;11828;51.508;18.118;2023-08-24T01:51:10;30.50;36.80
23311;DHT22;11828;51.508;18.118;2023-08-24T01:53:38;30.40;36.80
23311;DHT22;11828;51.508;18.118;2023-08-24T01:56:09;30.40;36.80
23311;DHT22;11828;51.508;18.118;2023-08-24T01:58:36;30.30;37.00
23311;DHT22;11828;51.508;18.118;2023-08-24T02:01:03;30.20;37.00
23311;DHT22;11828;51.508;18.118;2023-08-24T02:03:30;30.20;37.00
23311;DHT22;11828;51.508;18.118;2023-08-24T02:05:56;30.20;37.10
23311;DHT22;11828;51.508;18.118;2023-08-24T02:08:23;30.20;37.10
23311;DHT22;11828;51.508;18.118;2023-08-24T02:10:49;30.20;37.00
23311;DHT22;11828;51.508;18.118;2023-08-24T02:13:15;30.20;36.90
23311;DHT22;11828;51.508;18.118;2023-08-24T02:15:41;30.20;37.00
23311;DHT22;11828;51.508;18.118;2023-08-24T02:18:07;30.20;37.00
23311;DHT22;11828;51.508;18.118;2023-08-24T02:20:40;30.20;37.00
23311;DHT22;11828;51.508;18.118;2023-08-24T02:23:07;30.20;37.00
23311;DHT22;11828;51.508;18.118;2023-08-24T02:25:33;30.20;36.90
23311;DHT22;11828;51.508;18.118;2023-08-24T02:27:59;30.20;37.00
23311;DHT22;11828;51.508;18.118;2023-08-24T02:30:25;30.20;37.00
23311;DHT22;11828;51.508;18.118;2023-08-24T02:32:52;30.20;37.00
23311;DHT22;11828;51.508;18.118;2023-08-24T02:35:17;30.20;37.00
23311;DHT22;11828;51.508;18.118;2023-08-24T02:37:44;30.20;37.00
23311;DHT22;11828;51.508;18.118;2023-08-24T02:40:10;30.30;36.90
23311;DHT22;11828;51.508;18.118;2023-08-24T02:42:37;30.30;36.80
23311;DHT22;11828;51.508;18.118;2023-08-24T02:45:03;30.40;36.80
23311;DHT22;11828;51.508;18.118;2023-08-24T02:47:30;30.40;36.60
23311;DHT22;11828;51.508;18.118;2023-08-24T02:49:56;30.40;36.50
23311;DHT22;11828;51.508;18.118;2023-08-24T02:52:23;30.60;36.40
23311;DHT22;11828;51.508;18.118;2023-08-24T02:54:49;30.70;36.30
23311;DHT22;11828;51.508;18.118;2023-08-24T02:57:15;30.80;36.20
23311;DHT22;11828;51.508;18.118;2023-08-24T02:59:41;30.80;36.00
23311;DHT22;11828;51.508;18.118;2023-08-24T03:02:10;30.80;35.80
23311;DHT22;11828;51.508;18.118;2023-08-24T03:04:36;30.80;35.90
23311;DHT22;11828;51.508;18.118;2023-08-24T03:07:02;30.70;35.80
23311;DHT22;11828;51.508;18.118;2023-08-24T03:09:28;30.70;35.90
23311;DHT22;11828;51.508;18.118;2023-08-24T03:11:54;30.80;36.10
23311;DHT22;11828;51.508;18.118;2023-08-24T03:14:20;30.80;36.60
23311;DHT22;11828;51.508;18.118;2023-08-24T03:16:47;30.90;36.00
23311;DHT22;11828;51.508;18.118;2023-08-24T03:19:13;30.90;35.70
23311;DHT22;11828;51.508;18.118;2023-08-24T03:21:40;30.90;35.60
23311;DHT22;11828;51.508;18.118;2023-08-24T03:24:06;30.90;35.50
23311;DHT22;11828;51.508;18.118;2023-08-24T03:26:32;30.90;35.70
23311;DHT22;11828;51.508;18.118;2023-08-24T03:28:58;30.90;35.80
23311;DHT22;11828;51.508;18.118;2023-08-24T03:31:24;31.00;35.80
23311;DHT22;11828;51.508;18.118;2023-08-24T03:33:52;31.00;35.60
23311;DHT22;11828;51.508;18.118;2023-08-24T03:36:18;31.00;35.60
23311;DHT22;11828;51.508;18.118;2023-08-24T03:38:44;31.10;35.60
23311;DHT22;11828;51.508;18.118;2023-08-24T03:41:11;31.10;35.60
23311;DHT22;11828;51.508;18.118;2023-08-24T03:43:37;31.10;35.60
23311;DHT22;11828;51.508;18.118;2023-08-24T03:46:04;31.20;35.40
23311;DHT22;11828;51.508;18.118;2023-08-24T03:48:32;31.20;35.40
23311;DHT22;11828;51.508;18.118;2023-08-24T03:50:58;31.20;35.50
23311;DHT22;11828;51.508;18.118;2023-08-24T03:53:25;31.20;35.40
23311;DHT22;11828;51.508;18.118;2023-08-24T03:55:52;31.30;35.40
23311;DHT22;11828;51.508;18.118;2023-08-24T03:58:18;31.20;35.40
23311;DHT22;11828;51.508;18.118;2023-08-24T04:00:45;31.20;35.30
23311;DHT22;11828;51.508;18.118;2023-08-24T04:03:12;31.10;35.40
23311;DHT22;11828;51.508;18.118;2023-08-24T04:05:39;31.10;35.40
23311;DHT22;11828;51.508;18.118;2023-08-24T04:08:05;31.00;35.50
23311;DHT22;11828;51.508;18.118;2023-08-24T04:10:31;30.90;35.70
23311;DHT22;11828;51.508;18.118;2023-08-24T04:12:57;30.80;36.00
23311;DHT22;11828;51.508;18.118;2023-08-24T04:15:23;30.70;36.20
23311;DHT22;11828;51.508;18.118;2023-08-24T04:17:50;30.60;36.30
23311;DHT22;11828;51.508;18.118;2023-08-24T04:20:16;30.50;36.60
23311;DHT22;11828;51.508;18.118;2023-08-24T04:22:42;30.50;36.60
23311;DHT22;11828;51.508;18.118;2023-08-24T04:25:09;30.40;36.40
23311;DHT22;11828;51.508;18.118;2023-08-24T04:27:37;30.40;36.50
23311;DHT22;11828;51.508;18.118;2023-08-24T04:30:03;30.40;36.60
23311;DHT22;11828;51.508;18.118;2023-08-24T04:32:32;30.30;36.60
23311;DHT22;11828;51.508;18.118;2023-08-24T04:34:58;30.30;36.70
23311;DHT22;11828;51.508;18.118;2023-08-24T04:37:24;30.20;36.70
23311;DHT22;11828;51.508;18.118;2023-08-24T04:39:50;30.10;36.80
23311;DHT22;11828;51.508;18.118;2023-08-24T04:42:16;30.00;36.90
23311;DHT22;11828;51.508;18.118;2023-08-24T04:44:43;30.00;37.20
23311;DHT22;11828;51.508;18.118;2023-08-24T04:47:09;30.00;37.30
23311;DHT22;11828;51.508;18.118;2023-08-24T04:49:36;30.00;37.30
23311;DHT22;11828;51.508;18.118;2023-08-24T04:52:02;30.00;37.40
23311;DHT22;11828;51.508;18.118;2023-08-24T04:54:29;30.10;37.40
23311;DHT22;11828;51.508;18.118;2023-08-24T04:56:55;30.10;37.20
23311;DHT22;11828;51.508;18.118;2023-08-24T04:59:21;30.30;37.00
23311;DHT22;11828;51.508;18.118;2023-08-24T05:01:47;30.40;36.80
23311;DHT22;11828;51.508;18.118;2023-08-24T05:04:13;30.40;36.80
23311;DHT22;11828;51.508;18.118;2023-08-24T05:06:39;30.40;36.70
23311;DHT22;11828;51.508;18.118;2023-08-24T05:09:06;30.50;36.70
23311;DHT22;11828;51.508;18.118;2023-08-24T05:11:32;30.40;36.80
23311;DHT22;11828;51.508;18.118;2023-08-24T05:13:58;30.30;36.80
23311;DHT22;11828;51.508;18.118;2023-08-24T05:16:24;30.40;36.80
23311;DHT22;11828;51.508;18.118;2023-08-24T05:18:51;30.40;36.80
23311;DHT22;11828;51.508;18.118;2023-08-24T05:21:17;30.50;36.90
23311;DHT22;11828;51.508;18.118;2023-08-24T05:23:44;30.70;36.90
23311;DHT22;11828;51.508;18.118;2023-08-24T05:26:10;30.80;36.70
23311;DHT22;11828;51.508;18.118;2023-08-24T05:28:36;31.00;36.30
23311;DHT22;11828;51.508;18.118;2023-08-24T05:31:02;31.20;36.10
23311;DHT22;11828;51.508;18.118;2023-08-24T05:33:28;31.40;35.90
23311;DHT22;11828;51.508;18.118;2023-08-24T05:35:56;31.50;35.50
23311;DHT22;11828;51.508;18.118;2023-08-24T05:38:23;31.60;35.30
23311;DHT22;11828;51.508;18.118;2023-08-24T05:40:50;31.70;35.30
23311;DHT22;11828;51.508;18.118;2023-08-24T05:43:16;31.80;35.40
23311;DHT22;11828;51.508;18.118;2023-08-24T05:45:42;32.00;35.50
23311;DHT22;11828;51.508;18.118;2023-08-24T05:48:10;32.10;35.30
23311;DHT22;11828;51.508;18.118;2023-08-24T05:50:37;32.20;35.10
23311;DHT22;11828;51.508;18.118;2023-08-24T05:53:08;32.40;35.10
23311;DHT22;11828;51.508;18.118;2023-08-24T05:55:34;32.50;35.10
23311;DHT22;11828;51.508;18.118;2023-08-24T05:58:00;32.70;35.00
23311;DHT22;11828;51.508;18.118;2023-08-24T06:00:27;32.80;35.00
23311;DHT22;11828;51.508;18.118;2023-08-24T06:02:53;33.00;34.70
23311;DHT22;11828;51.508;18.118;2023-08-24T06:05:19;33.10;34.60
23311;DHT22;11828;51.508;18.118;2023-08-24T06:07:45;33.30;34.70
23311;DHT22;11828;51.508;18.118;2023-08-24T06:10:11;33.40;34.60
23311;DHT22;11828;51.508;18.118;2023-08-24T06:12:38;33.60;34.70
23311;DHT22;11828;51.508;18.118;2023-08-24T06:15:05;33.70;34.70
23311;DHT22;11828;51.508;18.118;2023-08-24T06:17:33;33.90;34.70
23311;DHT22;11828;51.508;18.118;2023-08-24T06:20:05;34.00;34.70
23311;DHT22;11828;51.508;18.118;2023-08-24T06:22:31;34.10;34.60
23311;DHT22;11828;51.508;18.118;2023-08-24T06:24:57;34.30;34.70
23311;DHT22;11828;51.508;18.118;2023-08-24T06:27:26;34.30;34.60
23311;DHT22;11828;51.508;18.118;2023-08-24T06:29:52;34.50;34.60
23311;DHT22;11828;51.508;18.118;2023-08-24T06:32:18;34.60;34.50
23311;DHT22;11828;51.508;18.118;2023-08-24T06:34:44;34.80;34.20
23311;DHT22;11828;51.508;18.118;2023-08-24T06:37:11;35.00;33.90
23311;DHT22;11828;51.508;18.118;2023-08-24T06:39:36;35.20;33.50
23311;DHT22;11828;51.508;18.118;2023-08-24T06:42:03;35.40;33.40
23311;DHT22;11828;51.508;18.118;2023-08-24T06:44:29;35.70;33.30
23311;DHT22;11828;51.508;18.118;2023-08-24T06:46:55;35.90;32.90
23311;DHT22;11828;51.508;18.118;2023-08-24T06:49:21;36.20;32.60
23311;DHT22;11828;51.508;18.118;2023-08-24T06:51:47;36.40;32.40
23311;DHT22;11828;51.508;18.118;2023-08-24T06:54:13;36.80;32.30
23311;DHT22;11828;51.508;18.118;2023-08-24T06:56:40;37.50;31.40
23311;DHT22;11828;51.508;18.118;2023-08-24T06:59:07;38.40;30.80
23311;DHT22;11828;51.508;18.118;2023-08-24T07:01:33;39.60;29.80
23311;DHT22;11828;51.508;18.118;2023-08-24T07:03:59;40.70;29.00
23311;DHT22;11828;51.508;18.118;2023-08-24T07:06:25;41.60;28.00
23311;DHT22;11828;51.508;18.118;2023-08-24T07:08:51;42.40;27.20
23311;DHT22;11828;51.508;18.118;2023-08-24T07:11:18;43.20;26.40
23311;DHT22;11828;51.508;18.118;2023-08-24T07:13:47;43.70;25.90
23311;DHT22;11828;51.508;18.118;2023-08-24T07:16:14;44.40;25.20
23311;DHT22;11828;51.508;18.118;2023-08-24T07:18:40;45.00;24.80
23311;DHT22;11828;51.508;18.118;2023-08-24T07:21:06;45.60;24.60
23311;DHT22;11828;51.508;18.118;2023-08-24T07:23:32;46.20;24.00
23311;DHT22;11828;51.508;18.118;2023-08-24T07:25:58;47.00;23.60
23311;DHT22;11828;51.508;18.118;2023-08-24T07:28:24;47.70;23.10
23311;DHT22;11828;51.508;18.118;2023-08-24T07:30:51;48.20;22.60
23311;DHT22;11828;51.508;18.118;2023-08-24T07:33:21;48.70;22.10
23311;DHT22;11828;51.508;18.118;2023-08-24T07:35:48;49.20;21.70
23311;DHT22;11828;51.508;18.118;2023-08-24T07:38:14;49.40;21.40
23311;DHT22;11828;51.508;18.118;2023-08-24T07:40:40;49.70;21.20
23311;DHT22;11828;51.508;18.118;2023-08-24T07:43:06;50.00;21.00
23311;DHT22;11828;51.508;18.118;2023-08-24T07:45:33;50.20;20.60
23311;DHT22;11828;51.508;18.118;2023-08-24T07:47:59;50.50;20.40
23311;DHT22;11828;51.508;18.118;2023-08-24T07:50:25;50.60;20.10
23311;DHT22;11828;51.508;18.118;2023-08-24T07:52:51;50.80;20.20
23311;DHT22;11828;51.508;18.118;2023-08-24T07:55:18;51.00;20.00
23311;DHT22;11828;51.508;18.118;2023-08-24T07:57:44;51.20;19.90
23311;DHT22;11828;51.508;18.118;2023-08-24T08:00:11;51.40;19.60
23311;DHT22;11828;51.508;18.118;2023-08-24T08:02:39;51.60;19.50
23311;DHT22;11828;51.508;18.118;2023-08-24T08:05:05;51.60;19.40
23311;DHT22;11828;51.508;18.118;2023-08-24T08:07:33;51.80;19.40
23311;DHT22;11828;51.508;18.118;2023-08-24T08:10:01;52.20;19.40
23311;DHT22;11828;51.508;18.118;2023-08-24T08:12:27;52.50;19.30
23311;DHT22;11828;51.508;18.118;2023-08-24T08:14:53;52.80;19.00
23311;DHT22;11828;51.508;18.118;2023-08-24T08:17:19;53.10;18.90
23311;DHT22;11828;51.508;18.118;2023-08-24T08:19:46;53.40;18.50
23311;DHT22;11828;51.508;18.118;2023-08-24T08:22:12;53.50;18.40
23311;DHT22;11828;51.508;18.118;2023-08-24T08:24:39;53.60;18.30
23311;DHT22;11828;51.508;18.118;2023-08-24T08:27:05;53.80;18.10
23311;DHT22;11828;51.508;18.118;2023-08-24T08:29:31;53.90;18.20
23311;DHT22;11828;51.508;18.118;2023-08-24T08:31:58;54.40;18.00
23311;DHT22;11828;51.508;18.118;2023-08-24T08:34:24;54.50;17.80
23311;DHT22;11828;51.508;18.118;2023-08-24T08:36:50;54.70;17.60
23311;DHT22;11828;51.508;18.118;2023-08-24T08:39:16;54.90;17.60
23311;DHT22;11828;51.508;18.118;2023-08-24T08:41:44;54.90;17.30
23311;DHT22;11828;51.508;18.118;2023-08-24T08:44:15;55.30;17.40
23311;DHT22;11828;51.508;18.118;2023-08-24T08:46:42;55.30;17.00
23311;DHT22;11828;51.508;18.118;2023-08-24T08:49:11;55.20;16.90
23311;DHT22;11828;51.508;18.118;2023-08-24T08:51:38;55.10;17.10
23311;DHT22;11828;51.508;18.118;2023-08-24T08:54:05;55.20;17.00
23311;DHT22;11828;51.508;18.118;2023-08-24T08:56:32;55.30;16.90
23311;DHT22;11828;51.508;18.118;2023-08-24T08:59:00;55.30;16.80
23311;DHT22;11828;51.508;18.118;2023-08-24T09:01:27;55.40;16.80
23311;DHT22;11828;51.508;18.118;2023-08-24T09:03:57;55.40;16.60
23311;DHT22;11828;51.508;18.118;2023-08-24T09:06:23;55.50;16.80
23311;DHT22;11828;51.508;18.118;2023-08-24T09:08:49;55.70;16.60
23311;DHT22;11828;51.508;18.118;2023-08-24T09:11:16;55.80;16.40
23311;DHT22;11828;51.508;18.118;2023-08-24T09:13:45;55.90;16.40
23311;DHT22;11828;51.508;18.118;2023-08-24T09:16:11;55.70;16.10
23311;DHT22;11828;51.508;18.118;2023-08-24T09:18:45;55.70;16.30
23311;DHT22;11828;51.508;18.118;2023-08-24T09:21:14;55.70;16.40
23311;DHT22;11828;51.508;18.118;2023-08-24T09:23:59;55.80;16.30
23311;DHT22;11828;51.508;18.118;2023-08-24T09:26:29;55.70;16.00
23311;DHT22;11828;51.508;18.118;2023-08-24T09:31:43;55.70;15.90
23311;DHT22;11828;51.508;18.118;2023-08-24T09:34:12;55.70;16.30
23311;DHT22;11828;51.508;18.118;2023-08-24T09:36:38;55.70;16.30
23311;DHT22;11828;51.508;18.118;2023-08-24T09:39:05;55.50;16.20
23311;DHT22;11828;51.508;18.118;2023-08-24T09:41:45;55.10;16.10
23311;DHT22;11828;51.508;18.118;2023-08-24T09:44:17;54.60;15.90
23311;DHT22;11828;51.508;18.118;2023-08-24T09:46:43;53.90;16.40
23311;DHT22;11828;51.508;18.118;2023-08-24T09:49:11;53.50;16.70
23311;DHT22;11828;51.508;18.118;2023-08-24T09:51:38;53.10;16.70
23311;DHT22;11828;51.508;18.118;2023-08-24T09:54:07;53.00;17.00
23311;DHT22;11828;51.508;18.118;2023-08-24T09:56:39;52.90;17.10
23311;DHT22;11828;51.508;18.118;2023-08-24T09:59:17;52.60;17.20
23311;DHT22;11828;51.508;18.118;2023-08-24T10:01:46;52.50;17.50
23311;DHT22;11828;51.508;18.118;2023-08-24T10:04:24;52.40;17.50
23311;DHT22;11828;51.508;18.118;2023-08-24T10:07:02;52.20;17.50
23311;DHT22;11828;51.508;18.118;2023-08-24T10:09:45;51.90;17.70
23311;DHT22;11828;51.508;18.118;2023-08-24T10:12:18;51.80;17.40
23311;DHT22;11828;51.508;18.118;2023-08-24T10:15:07;51.40;17.70
23311;DHT22;11828;51.508;18.118;2023-08-24T10:17:34;51.20;17.30
23311;DHT22;11828;51.508;18.118;2023-08-24T10:20:02;50.70;17.60
23311;DHT22;11828;51.508;18.118;2023-08-24T10:22:35;50.00;18.10
23311;DHT22;11828;51.508;18.118;2023-08-24T10:25:02;49.40;18.50
23311;DHT22;11828;51.508;18.118;2023-08-24T10:27:29;49.00;18.70
23311;DHT22;11828;51.508;18.118;2023-08-24T10:29:56;48.70;18.80
23311;DHT22;11828;51.508;18.118;2023-08-24T10:32:25;48.60;18.80
23311;DHT22;11828;51.508;18.118;2023-08-24T10:34:52;48.50;19.10
23311;DHT22;11828;51.508;18.118;2023-08-24T10:37:25;48.50;19.10
23311;DHT22;11828;51.508;18.118;2023-08-24T10:39:52;48.50;19.10
23311;DHT22;11828;51.508;18.118;2023-08-24T10:42:18;48.60;19.00
23311;DHT22;11828;51.508;18.118;2023-08-24T10:44:45;48.50;19.10
23311;DHT22;11828;51.508;18.118;2023-08-24T10:47:21;48.50;18.90
23311;DHT22;11828;51.508;18.118;2023-08-24T10:52:30;48.10;18.80
23311;DHT22;11828;51.508;18.118;2023-08-24T10:55:03;47.80;18.70
23311;DHT22;11828;51.508;18.118;2023-08-24T10:57:40;47.60;18.80
23311;DHT22;11828;51.508;18.118;2023-08-24T11:00:11;47.30;18.90
23311;DHT22;11828;51.508;18.118;2023-08-24T11:05:20;47.00;18.80
23311;DHT22;11828;51.508;18.118;2023-08-24T11:08:00;46.90;18.90
23311;DHT22;11828;51.508;18.118;2023-08-24T11:10:46;46.80;19.30
23311;DHT22;11828;51.508;18.118;2023-08-24T11:13:13;46.60;19.10
23311;DHT22;11828;51.508;18.118;2023-08-24T11:15:42;46.60;19.20
23311;DHT22;11828;51.508;18.118;2023-08-24T11:18:26;46.40;19.00
23311;DHT22;11828;51.508;18.118;2023-08-24T11:21:01;46.10;19.20
23311;DHT22;11828;51.508;18.118;2023-08-24T11:23:28;45.90;19.80
23311;DHT22;11828;51.508;18.118;2023-08-24T11:25:55;46.00;19.90
23311;DHT22;11828;51.508;18.118;2023-08-24T11:28:24;46.00;20.10
23311;DHT22;11828;51.508;18.118;2023-08-24T11:30:52;45.90;20.10
23311;DHT22;11828;51.508;18.118;2023-08-24T11:33:35;45.90;20.20
23311;DHT22;11828;51.508;18.118;2023-08-24T11:36:03;45.90;19.80
23311;DHT22;11828;51.508;18.118;2023-08-24T11:38:40;46.00;20.10
23311;DHT22;11828;51.508;18.118;2023-08-24T11:41:14;46.10;20.10
23311;DHT22;11828;51.508;18.118;2023-08-24T11:43:43;46.00;20.10
23311;DHT22;11828;51.508;18.118;2023-08-24T11:46:10;46.00;19.90
23311;DHT22;11828;51.508;18.118;2023-08-24T11:48:38;45.90;20.00
23311;DHT22;11828;51.508;18.118;2023-08-24T11:51:09;45.90;20.30
23311;DHT22;11828;51.508;18.118;2023-08-24T11:53:39;45.70;20.00
23311;DHT22;11828;51.508;18.118;2023-08-24T11:56:07;45.70;20.20
23311;DHT22;11828;51.508;18.118;2023-08-24T11:58:34;45.80;20.50
23311;DHT22;11828;51.508;18.118;2023-08-24T12:01:00;45.70;20.60
23311;DHT22;11828;51.508;18.118;2023-08-24T12:03:27;45.70;20.40
23311;DHT22;11828;51.508;18.118;2023-08-24T12:05:53;45.70;20.40
23311;DHT22;11828;51.508;18.118;2023-08-24T12:08:19;45.70;20.40
23311;DHT22;11828;51.508;18.118;2023-08-24T12:10:45;45.60;20.40
23311;DHT22;11828;51.508;18.118;2023-08-24T12:13:12;45.60;20.60
23311;DHT22;11828;51.508;18.118;2023-08-24T12:15:40;45.40;20.60
23311;DHT22;11828;51.508;18.118;2023-08-24T12:18:13;45.40;20.80
23311;DHT22;11828;51.508;18.118;2023-08-24T12:20:42;45.30;20.90
23311;DHT22;11828;51.508;18.118;2023-08-24T12:23:10;45.40;20.50
23311;DHT22;11828;51.508;18.118;2023-08-24T12:25:37;45.10;20.30
23311;DHT22;11828;51.508;18.118;2023-08-24T12:28:15;45.00;20.50
23311;DHT22;11828;51.508;18.118;2023-08-24T12:30:52;45.10;20.50
23311;DHT22;11828;51.508;18.118;2023-08-24T12:33:26;45.10;20.90
23311;DHT22;11828;51.508;18.118;2023-08-24T12:35:54;45.20;20.70
23311;DHT22;11828;51.508;18.118;2023-08-24T12:38:23;45.20;20.30
23311;DHT22;11828;51.508;18.118;2023-08-24T12:40:51;45.40;20.20
23311;DHT22;11828;51.508;18.118;2023-08-24T12:43:17;45.60;20.40
23311;DHT22;11828;51.508;18.118;2023-08-24T12:45:43;45.70;20.20
23311;DHT22;11828;51.508;18.118;2023-08-24T12:48:10;45.80;20.10
23311;DHT22;11828;51.508;18.118;2023-08-24T12:50:38;45.90;20.00
23311;DHT22;11828;51.508;18.118;2023-08-24T12:53:05;45.90;19.90
23311;DHT22;11828;51.508;18.118;2023-08-24T12:55:37;45.90;19.70
23311;DHT22;11828;51.508;18.118;2023-08-24T12:58:05;45.90;19.80
23311;DHT22;11828;51.508;18.118;2023-08-24T13:00:32;45.90;19.60
23311;DHT22;11828;51.508;18.118;2023-08-24T13:02:58;46.10;19.60
23311;DHT22;11828;51.508;18.118;2023-08-24T13:05:25;46.20;19.90
23311;DHT22;11828;51.508;18.118;2023-08-24T13:07:51;46.30;19.70
23311;DHT22;11828;51.508;18.118;2023-08-24T13:10:17;46.30;19.70
23311;DHT22;11828;51.508;18.118;2023-08-24T13:12:43;46.30;19.80
23311;DHT22;11828;51.508;18.118;2023-08-24T13:15:10;46.30;19.80
23311;DHT22;11828;51.508;18.118;2023-08-24T13:17:37;46.30;19.90
23311;DHT22;11828;51.508;18.118;2023-08-24T13:20:05;46.40;20.00
23311;DHT22;11828;51.508;18.118;2023-08-24T13:22:32;46.50;19.90
23311;DHT22;11828;51.508;18.118;2023-08-24T13:24:59;46.50;19.70
23311;DHT22;11828;51.508;18.118;2023-08-24T13:27:25;46.50;19.60
23311;DHT22;11828;51.508;18.118;2023-08-24T13:29:51;46.50;19.50
23311;DHT22;11828;51.508;18.118;2023-08-24T13:32:17;46.50;19.40
23311;DHT22;11828;51.508;18.118;2023-08-24T13:34:45;46.50;19.20
23311;DHT22;11828;51.508;18.118;2023-08-24T13:37:11;46.60;19.40
23311;DHT22;11828;51.508;18.118;2023-08-24T13:39:37;46.60;19.70
23311;DHT22;11828;51.508;18.118;2023-08-24T13:42:04;46.60;19.60
23311;DHT22;11828;51.508;18.118;2023-08-24T13:44:30;46.60;19.60
23311;DHT22;11828;51.508;18.118;2023-08-24T13:46:56;46.50;19.70
23311;DHT22;11828;51.508;18.118;2023-08-24T13:49:22;46.50;19.50
23311;DHT22;11828;51.508;18.118;2023-08-24T13:51:48;46.50;19.50
23311;DHT22;11828;51.508;18.118;2023-08-24T13:54:16;46.60;19.20
23311;DHT22;11828;51.508;18.118;2023-08-24T13:56:45;46.50;19.00
23311;DHT22;11828;51.508;18.118;2023-08-24T13:59:13;46.50;19.00
23311;DHT22;11828;51.508;18.118;2023-08-24T14:01:40;46.50;19.10
23311;DHT22;11828;51.508;18.118;2023-08-24T14:04:07;46.60;19.20
23311;DHT22;11828;51.508;18.118;2023-08-24T14:06:34;46.80;19.70
23311;DHT22;11828;51.508;18.118;2023-08-24T14:09:03;46.80;18.90
23311;DHT22;11828;51.508;18.118;2023-08-24T14:11:30;46.90;19.00
23311;DHT22;11828;51.508;18.118;2023-08-24T14:13:58;47.20;19.30
23311;DHT22;11828;51.508;18.118;2023-08-24T14:16:24;47.40;19.30
23311;DHT22;11828;51.508;18.118;2023-08-24T14:18:52;47.40;19.10
23311;DHT22;11828;51.508;18.118;2023-08-24T14:21:19;47.70;19.10
23311;DHT22;11828;51.508;18.118;2023-08-24T14:23:49;47.80;18.90
23311;DHT22;11828;51.508;18.118;2023-08-24T14:26:16;48.00;18.90
23311;DHT22;11828;51.508;18.118;2023-08-24T14:31:26;48.00;18.50
23311;DHT22;11828;51.508;18.118;2023-08-24T14:33:55;48.20;18.60
23311;DHT22;11828;51.508;18.118;2023-08-24T14:36:22;48.40;18.60
23311;DHT22;11828;51.508;18.118;2023-08-24T14:38:50;48.50;18.50
23311;DHT22;11828;51.508;18.118;2023-08-24T14:41:17;48.20;18.60
23311;DHT22;11828;51.508;18.118;2023-08-24T14:43:46;48.20;18.60
23311;DHT22;11828;51.508;18.118;2023-08-24T14:46:12;48.50;18.60
23311;DHT22;11828;51.508;18.118;2023-08-24T14:48:39;48.70;18.20
23311;DHT22;11828;51.508;18.118;2023-08-24T14:51:05;49.00;18.30
23311;DHT22;11828;51.508;18.118;2023-08-24T14:53:32;49.20;18.20
23311;DHT22;11828;51.508;18.118;2023-08-24T14:55:58;49.70;18.20
23311;DHT22;11828;51.508;18.118;2023-08-24T14:58:25;50.20;17.80
23311;DHT22;11828;51.508;18.118;2023-08-24T15:00:53;50.60;17.60
23311;DHT22;11828;51.508;18.118;2023-08-24T15:03:21;50.80;17.60
23311;DHT22;11828;51.508;18.118;2023-08-24T15:05:57;50.90;17.40
23311;DHT22;11828;51.508;18.118;2023-08-24T15:08:25;51.10;17.10
23311;DHT22;11828;51.508;18.118;2023-08-24T15:10:54;51.30;17.30
23311;DHT22;11828;51.508;18.118;2023-08-24T15:13:26;51.40;17.10
23311;DHT22;11828;51.508;18.118;2023-08-24T15:15:54;51.60;17.10
23311;DHT22;11828;51.508;18.118;2023-08-24T15:18:22;51.60;17.10
23311;DHT22;11828;51.508;18.118;2023-08-24T15:20:48;51.70;17.10
23311;DHT22;11828;51.508;18.118;2023-08-24T15:23:25;51.70;17.10
23311;DHT22;11828;51.508;18.118;2023-08-24T15:25:54;51.70;17.00
23311;DHT22;11828;51.508;18.118;2023-08-24T15:28:22;51.70;17.00
23311;DHT22;11828;51.508;18.118;2023-08-24T15:30:49;51.60;17.10
23311;DHT22;11828;51.508;18.118;2023-08-24T15:33:16;51.70;17.00
23311;DHT22;11828;51.508;18.118;2023-08-24T15:35:43;51.70;17.10